Time;durP1;ratioP1;P1;durP2;ratioP2;P2;SDS_P1;SDS_P2;PMS_P1;PMS_P2;Temp;Humidity;BMP_temperature;BMP_pressure;BME280_temperature;BME280_humidity;BME280_pressure;Samples;Min_cycle;Max_cycle;Signal;HPM_P1;HPM_P2
2022/11/01 00:01:54;;;;;;;29.03;15.30;;;11.70;89.80;;;;;;5014083;28;20187;-61
2022/11/01 00:04:20;;;;;;;20.60;15.57;;;11.60;90.00;;;;;;5019592;28;20211;-61
2022/11/01 00:06:46;;;;;;;19.73;15.00;;;11.70;90.40;;;;;;5072007;28;20211;-60
2022/11/01 00:09:12;;;;;;;16.77;14.13;;;11.80;90.30;;;;;;5033593;28;20191;-60
2022/11/01 00:11:38;;;;;;;24.43;15.37;;;11.90;89.80;;;;;;5046380;28;20248;-60
2022/11/01 00:14:03;;;;;;;22.17;16.00;;;12.00;89.50;;;;;;5061998;28;20255;-60
2022/11/01 00:16:29;;;;;;;21.07;15.93;;;11.90;89.40;;;;;;5038339;28;20191;-60
2022/11/01 00:18:55;;;;;;;23.50;16.97;;;12.00;89.20;;;;;;5025285;28;20192;-60
2022/11/01 00:21:21;;;;;;;19.17;14.17;;;12.00;88.70;;;;;;5035093;28;20222;-60
2022/11/01 00:23:47;;;;;;;19.70;15.93;;;11.90;89.10;;;;;;5034368;28;20184;-59
2022/11/01 00:26:19;;;;;;;21.90;14.30;;;12.00;89.20;;;;;;5037156;28;20212;-61
2022/11/01 00:28:45;;;;;;;34.20;14.60;;;11.90;88.70;;;;;;5037464;28;20191;-60
2022/11/01 00:31:12;;;;;;;16.33;13.00;;;11.90;88.80;;;;;;5016578;28;20241;-60
2022/11/01 00:33:38;;;;;;;21.57;14.03;;;11.80;89.00;;;;;;5034957;28;20233;-60
2022/11/01 00:36:05;;;;;;;18.20;13.37;;;11.90;89.00;;;;;;5024319;28;20251;-61
2022/11/01 00:38:31;;;;;;;17.77;13.63;;;11.90;88.80;;;;;;5014409;28;20227;-60
2022/11/01 00:40:57;;;;;;;17.63;14.57;;;11.90;88.90;;;;;;5032963;28;20227;-60
2022/11/01 00:43:23;;;;;;;15.60;13.40;;;11.90;88.90;;;;;;5044315;28;20233;-60
2022/11/01 00:45:49;;;;;;;17.40;13.43;;;12.10;88.80;;;;;;5032652;28;20219;-60
2022/11/01 00:48:14;;;;;;;16.90;13.63;;;12.10;88.50;;;;;;5033248;28;20644;-60
2022/11/01 00:50:40;;;;;;;23.13;14.17;;;12.10;88.40;;;;;;5016800;28;20732;-60
2022/11/01 00:53:06;;;;;;;20.87;14.30;;;12.10;88.30;;;;;;5026230;28;20182;-60
2022/11/01 00:55:32;;;;;;;20.77;14.03;;;12.10;88.40;;;;;;5047093;28;20295;-60
2022/11/01 00:57:58;;;;;;;23.97;14.83;;;12.00;88.30;;;;;;5050258;28;20198;-60
2022/11/01 01:00:24;;;;;;;17.90;13.23;;;12.00;88.40;;;;;;5017465;28;20195;-60
2022/11/01 01:02:50;;;;;;;18.07;13.30;;;11.90;88.40;;;;;;5027898;28;20253;-60
2022/11/01 01:05:16;;;;;;;26.03;14.37;;;12.00;88.70;;;;;;5016186;28;20207;-60
2022/11/01 01:07:41;;;;;;;16.03;13.30;;;12.00;88.40;;;;;;5026586;28;20187;-60
2022/11/01 01:10:08;;;;;;;18.27;12.47;;;12.00;88.30;;;;;;5043792;28;20192;-60
2022/11/01 01:12:33;;;;;;;17.23;14.27;;;12.00;88.40;;;;;;5033460;28;20187;-60
2022/11/01 01:14:59;;;;;;;24.67;13.77;;;12.00;88.50;;;;;;5030041;28;20245;-61
2022/11/01 01:17:25;;;;;;;24.30;14.10;;;12.00;88.30;;;;;;5034237;28;20187;-60
2022/11/01 01:19:51;;;;;;;19.43;13.83;;;11.90;88.20;;;;;;5020679;28;20265;-60
2022/11/01 01:22:17;;;;;;;20.77;14.33;;;12.00;88.40;;;;;;5049139;28;20256;-60
2022/11/01 01:24:46;;;;;;;19.60;14.50;;;11.90;88.40;;;;;;5014192;28;20252;-60
2022/11/01 01:27:13;;;;;;;22.10;13.97;;;11.90;88.50;;;;;;5050172;28;20194;-60
2022/11/01 01:29:43;;;;;;;22.80;13.77;;;11.90;88.70;;;;;;5031236;28;20229;-60
2022/11/01 01:32:13;;;;;;;19.77;13.27;;;11.90;88.60;;;;;;5030190;28;20215;-60
2022/11/01 01:34:38;;;;;;;28.17;14.50;;;11.80;88.60;;;;;;5047094;28;20261;-60
2022/11/01 01:37:05;;;;;;;16.97;13.00;;;11.80;88.70;;;;;;5018663;28;20192;-60
2022/11/01 01:39:30;;;;;;;17.83;13.90;;;11.80;89.10;;;;;;5018533;28;20283;-60
2022/11/01 01:41:56;;;;;;;19.60;13.60;;;11.80;89.30;;;;;;5016066;28;20283;-60
2022/11/01 01:44:50;;;;;;;18.97;13.63;;;11.80;89.30;;;;;;5011241;28;20281;-60
2022/11/01 01:47:17;;;;;;;17.63;13.13;;;11.90;89.40;;;;;;5032403;28;20226;-60
2022/11/01 01:49:44;;;;;;;16.90;13.23;;;11.90;89.30;;;;;;5062935;28;20183;-60
2022/11/01 01:52:11;;;;;;;17.03;13.60;;;12.00;89.30;;;;;;5033248;28;20245;-60
2022/11/01 01:54:37;;;;;;;17.10;12.50;;;11.90;89.00;;;;;;5032435;28;20179;-60
2022/11/01 01:57:03;;;;;;;17.23;12.87;;;11.90;88.90;;;;;;5033456;28;20328;-60
2022/11/01 01:59:30;;;;;;;14.37;12.27;;;11.80;88.50;;;;;;5016526;28;20206;-60
2022/11/01 02:01:57;;;;;;;17.40;13.27;;;11.80;88.70;;;;;;5034480;28;20266;-60
2022/11/01 02:04:26;;;;;;;16.77;12.57;;;11.80;88.70;;;;;;5035831;28;20179;-60
2022/11/01 02:06:52;;;;;;;16.03;12.33;;;11.90;88.60;;;;;;5067159;28;20211;-60
2022/11/01 02:09:18;;;;;;;15.13;11.37;;;11.90;88.80;;;;;;5028589;28;20179;-60
2022/11/01 02:11:44;;;;;;;15.50;12.50;;;11.90;89.00;;;;;;5017393;28;20282;-60
2022/11/01 02:14:09;;;;;;;20.03;13.77;;;11.90;88.80;;;;;;5039454;28;20273;-60
2022/11/01 02:17:00;;;;;;;19.80;12.47;;;11.90;88.80;;;;;;5036005;28;20226;-60
2022/11/01 02:19:47;;;;;;;16.97;12.57;;;11.90;88.70;;;;;;5040257;28;20225;-60
2022/11/01 02:22:34;;;;;;;20.47;13.33;;;11.90;88.70;;;;;;5066511;28;20195;-60
2022/11/01 02:25:42;;;;;;;18.13;12.43;;;11.70;88.70;;;;;;5039800;28;20293;-60
2022/11/01 02:28:15;;;;;;;16.63;12.73;;;11.70;89.00;;;;;;5036847;28;20183;-60
2022/11/01 02:30:45;;;;;;;21.73;12.80;;;11.80;89.10;;;;;;5037774;28;20190;-60
2022/11/01 02:33:28;;;;;;;22.17;12.83;;;11.70;88.90;;;;;;5037131;28;20189;-60
2022/11/01 02:36:21;;;;;;;18.10;13.40;;;11.60;88.80;;;;;;5047077;28;20184;-60
2022/11/01 02:38:51;;;;;;;13.27;11.23;;;11.70;89.50;;;;;;5046781;28;20194;-60
2022/11/01 02:41:26;;;;;;;17.40;12.13;;;11.60;89.40;;;;;;5037769;28;20229;-60
2022/11/01 02:43:57;;;;;;;15.23;11.43;;;11.70;89.50;;;;;;5043490;28;20190;-60
2022/11/01 02:49:13;;;;;;;13.97;11.00;;;11.80;89.00;;;;;;5040310;28;20228;-60
2022/11/01 02:51:41;;;;;;;17.57;10.90;;;11.70;88.80;;;;;;5045488;28;20179;-60
2022/11/01 02:54:12;;;;;;;17.57;12.13;;;11.30;89.00;;;;;;5045657;28;20198;-60
2022/11/01 02:56:39;;;;;;;14.67;10.73;;;11.40;89.10;;;;;;5049017;28;20229;-60
2022/11/01 02:59:11;;;;;;;16.77;10.60;;;11.40;89.60;;;;;;5018056;28;20194;-60
2022/11/01 03:01:37;;;;;;;17.23;11.50;;;11.50;89.50;;;;;;5026404;28;20188;-60
2022/11/01 03:04:03;;;;;;;16.07;11.27;;;11.60;89.40;;;;;;5066216;28;20223;-60
2022/11/01 03:06:52;;;;;;;22.20;11.47;;;11.50;89.10;;;;;;5034782;28;20442;-60
2022/11/01 03:09:17;;;;;;;14.40;10.57;;;11.60;89.20;;;;;;5022351;28;20179;-60
2022/11/01 03:11:56;;;;;;;15.37;10.27;;;11.60;89.10;;;;;;5030027;28;20199;-60
2022/11/01 03:14:30;;;;;;;12.90;10.27;;;11.60;89.20;;;;;;5035142;28;20183;-60
2022/11/01 03:17:08;;;;;;;16.77;9.70;;;11.70;89.00;;;;;;5020529;28;20229;-60
2022/11/01 03:19:37;;;;;;;13.63;9.47;;;11.60;88.80;;;;;;5038488;28;20205;-60
2022/11/01 03:22:16;;;;;;;15.57;10.23;;;11.70;88.80;;;;;;5036307;28;20183;-60
2022/11/01 03:24:49;;;;;;;14.43;9.97;;;11.70;88.70;;;;;;5021169;28;20188;-60
2022/11/01 03:27:43;;;;;;;11.67;9.70;;;11.70;88.70;;;;;;5034140;28;20188;-60
2022/11/01 03:30:12;;;;;;;15.87;9.17;;;11.80;88.50;;;;;;5034175;28;20198;-60
2022/11/01 03:32:48;;;;;;;14.67;9.03;;;11.80;88.40;;;;;;5034731;28;20209;-60
2022/11/01 03:35:21;;;;;;;11.73;8.70;;;11.70;88.50;;;;;;5041086;28;20186;-60
2022/11/01 03:37:50;;;;;;;15.63;9.73;;;11.70;88.50;;;;;;5052499;28;20195;-60
2022/11/01 03:40:17;;;;;;;12.40;8.87;;;11.70;88.50;;;;;;5047916;28;20210;-60
2022/11/01 03:42:46;;;;;;;15.30;9.90;;;11.70;88.30;;;;;;5017815;28;20229;-60
2022/11/01 03:45:15;;;;;;;12.93;10.07;;;11.80;88.20;;;;;;5034319;28;20214;-60
2022/11/01 03:47:41;;;;;;;11.37;9.37;;;11.70;88.10;;;;;;5038736;28;20215;-60
2022/11/01 03:50:14;;;;;;;12.30;8.20;;;11.70;88.00;;;;;;5022050;28;20303;-60
2022/11/01 03:52:39;;;;;;;9.90;8.40;;;11.80;87.90;;;;;;5042116;28;20186;-60
2022/11/01 03:55:16;;;;;;;11.07;8.80;;;11.80;87.70;;;;;;4968416;28;1166057;-60
2022/11/01 03:57:56;;;;;;;12.17;9.10;;;11.80;87.70;;;;;;5025233;28;20194;-60
2022/11/01 04:00:28;;;;;;;12.30;9.00;;;11.70;87.90;;;;;;5028266;28;20213;-60
2022/11/01 04:02:55;;;;;;;10.87;8.33;;;11.80;87.80;;;;;;5038527;28;20190;-60
2022/11/01 04:05:23;;;;;;;13.20;8.17;;;11.70;87.60;;;;;;5018509;28;20262;-60
2022/11/01 04:07:50;;;;;;;14.87;8.90;;;11.80;87.30;;;;;;5022997;28;20239;-60
2022/11/01 04:10:17;;;;;;;11.17;8.53;;;11.70;87.30;;;;;;5050960;28;20191;-60
2022/11/01 04:12:44;;;;;;;10.53;7.67;;;11.70;87.20;;;;;;5028314;28;20200;-60
2022/11/01 04:21:14;;;;;;;11.23;8.27;;;11.60;87.20;;;;;;5037542;28;20185;-61
2022/11/01 04:23:40;;;;;;;16.37;11.73;;;11.70;87.40;;;;;;5036511;28;20237;-61
2022/11/01 04:26:06;;;;;;;26.03;15.07;;;11.70;87.20;;;;;;5034090;28;20242;-60
2022/11/01 04:28:32;;;;;;;15.77;10.47;;;11.70;87.20;;;;;;5017598;28;20246;-60
2022/11/01 04:30:58;;;;;;;18.80;11.10;;;11.70;87.00;;;;;;5034478;28;20221;-60
2022/11/01 04:33:24;;;;;;;16.83;11.40;;;11.60;86.80;;;;;;5034454;28;20657;-60
2022/11/01 04:35:49;;;;;;;19.40;12.30;;;11.70;86.80;;;;;;5024757;28;20206;-60
2022/11/01 04:38:15;;;;;;;11.03;7.40;;;11.60;86.60;;;;;;5019403;28;20196;-60
2022/11/01 04:40:42;;;;;;;11.87;7.53;;;11.60;86.40;;;;;;5010661;28;20195;-60
2022/11/01 04:43:08;;;;;;;10.23;7.10;;;11.50;86.30;;;;;;5018791;28;20191;-60
2022/11/01 04:45:34;;;;;;;11.70;8.10;;;11.50;86.40;;;;;;5033280;28;20219;-60
2022/11/01 04:48:20;;;;;;;23.50;13.33;;;11.50;86.40;;;;;;5066654;28;20194;-60
2022/11/01 04:50:46;;;;;;;67.67;34.93;;;11.50;86.30;;;;;;5007454;28;20283;-60
2022/11/01 04:53:12;;;;;;;41.00;24.53;;;11.50;86.50;;;;;;5017573;28;20331;-60
2022/11/01 04:55:38;;;;;;;29.50;18.53;;;11.50;86.60;;;;;;5050501;28;20250;-60
2022/11/01 04:58:05;;;;;;;18.33;12.57;;;11.50;86.50;;;;;;5054377;28;20202;-60
2022/11/01 05:00:34;;;;;;;23.43;15.93;;;11.50;86.30;;;;;;5014745;28;20211;-60
2022/11/01 05:03:01;;;;;;;38.40;27.03;;;11.50;86.30;;;;;;5005846;28;20195;-60
2022/11/01 05:05:27;;;;;;;16.40;10.70;;;11.50;86.20;;;;;;5033750;28;20211;-60
2022/11/01 05:08:04;;;;;;;10.97;7.00;;;11.40;86.10;;;;;;5053220;28;20194;-60
2022/11/01 05:10:31;;;;;;;9.40;7.00;;;11.40;86.00;;;;;;5025107;28;20253;-60
2022/11/01 05:12:57;;;;;;;10.83;7.50;;;11.40;86.00;;;;;;5033894;28;20187;-60
2022/11/01 05:15:22;;;;;;;18.33;13.43;;;11.40;86.00;;;;;;5018405;28;20192;-60
2022/11/01 05:17:48;;;;;;;12.10;9.43;;;11.40;85.80;;;;;;5025393;28;20201;-60
2022/11/01 05:20:14;;;;;;;8.70;6.83;;;11.30;85.90;;;;;;5023934;28;20222;-60
2022/11/01 05:22:39;;;;;;;9.30;6.77;;;11.40;85.80;;;;;;5058850;28;20427;-60
2022/11/01 05:25:08;;;;;;;7.10;5.93;;;11.30;85.70;;;;;;5031471;28;20207;-60
2022/11/01 05:27:34;;;;;;;12.10;6.40;;;11.30;85.70;;;;;;5029502;28;20213;-60
2022/11/01 05:30:00;;;;;;;7.27;5.77;;;11.30;85.40;;;;;;5028322;28;20225;-60
2022/11/01 05:32:26;;;;;;;6.27;5.17;;;11.30;85.40;;;;;;5051545;28;20183;-60
2022/11/01 05:34:52;;;;;;;7.03;6.20;;;11.20;85.40;;;;;;5004907;28;20191;-60
2022/11/01 05:37:17;;;;;;;8.33;5.13;;;11.20;85.20;;;;;;5025476;28;20195;-60
2022/11/01 05:39:43;;;;;;;9.93;5.30;;;11.20;85.30;;;;;;5025065;28;20191;-60
2022/11/01 05:42:09;;;;;;;8.80;5.70;;;11.20;85.50;;;;;;5033438;28;20189;-60
2022/11/01 05:44:34;;;;;;;10.97;5.90;;;11.10;85.00;;;;;;5059505;28;20190;-60
2022/11/01 05:47:04;;;;;;;7.43;5.03;;;11.10;85.00;;;;;;5044275;28;20210;-60
2022/11/01 05:49:30;;;;;;;6.73;4.83;;;11.10;85.20;;;;;;5022726;28;20262;-60
2022/11/01 05:51:56;;;;;;;10.40;6.10;;;11.10;85.20;;;;;;5032904;28;20193;-60
2022/11/01 05:54:21;;;;;;;7.63;5.80;;;11.00;85.30;;;;;;5032935;28;20191;-60
2022/11/01 05:56:47;;;;;;;9.03;5.83;;;11.10;85.10;;;;;;5017813;28;20272;-60
2022/11/01 05:59:13;;;;;;;8.53;5.77;;;11.00;85.40;;;;;;5034073;28;20282;-60
2022/11/01 06:01:39;;;;;;;9.83;5.93;;;10.90;84.90;;;;;;5012904;28;20286;-60
2022/11/01 06:04:04;;;;;;;6.70;5.73;;;10.90;85.20;;;;;;5036049;28;20256;-60
2022/11/01 06:06:31;;;;;;;8.30;6.30;;;10.80;85.80;;;;;;5044259;28;20214;-60
2022/11/01 06:08:57;;;;;;;9.43;5.63;;;10.80;85.90;;;;;;5030983;28;20183;-59
2022/11/01 06:11:24;;;;;;;6.57;5.60;;;10.80;85.80;;;;;;5030788;28;20186;-60
2022/11/01 06:13:56;;;;;;;8.43;5.97;;;10.90;85.70;;;;;;5037954;28;20195;-60
2022/11/01 06:16:23;;;;;;;11.27;6.70;;;10.90;85.60;;;;;;5032426;28;20285;-60
2022/11/01 06:18:48;;;;;;;8.33;6.53;;;10.80;85.40;;;;;;5032318;28;20199;-60
2022/11/01 06:21:15;;;;;;;9.37;6.80;;;10.80;85.30;;;;;;5020031;28;20187;-60
2022/11/01 06:23:40;;;;;;;11.03;7.37;;;10.80;85.60;;;;;;5029214;28;20199;-60
2022/11/01 06:26:06;;;;;;;11.20;6.97;;;10.80;85.60;;;;;;5044146;28;20207;-59
2022/11/01 06:28:32;;;;;;;8.87;6.90;;;10.90;85.50;;;;;;5033443;28;20179;-59
2022/11/01 06:31:02;;;;;;;11.00;6.50;;;10.90;85.30;;;;;;5038978;28;20195;-60
2022/11/01 06:33:29;;;;;;;9.37;7.33;;;10.90;85.40;;;;;;5016106;28;20197;-60
2022/11/01 06:35:54;;;;;;;12.07;8.67;;;11.00;85.30;;;;;;5032760;28;20187;-59
2022/11/01 06:38:20;;;;;;;14.00;9.07;;;11.00;85.30;;;;;;5051896;28;20201;-60
2022/11/01 06:40:46;;;;;;;12.10;9.13;;;11.00;85.20;;;;;;5014945;28;20187;-60
2022/11/01 06:43:12;;;;;;;12.63;8.63;;;11.10;85.30;;;;;;5016642;28;20187;-60
2022/11/01 06:45:37;;;;;;;10.87;8.27;;;11.10;85.30;;;;;;5015925;28;20261;-60
2022/11/01 06:48:03;;;;;;;14.13;8.77;;;11.20;85.30;;;;;;5042322;28;20195;-60
2022/11/01 06:50:30;;;;;;;11.97;8.93;;;11.20;84.90;;;;;;5035024;28;20187;-59
2022/11/01 06:52:59;;;;;;;14.27;9.23;;;11.20;84.60;;;;;;5056199;28;20190;-60
2022/11/01 06:55:28;;;;;;;9.87;8.30;;;11.20;84.60;;;;;;5039551;28;20350;-60
2022/11/01 06:57:57;;;;;;;10.23;7.47;;;11.30;84.80;;;;;;5038923;28;20256;-59
2022/11/01 07:00:24;;;;;;;9.97;7.30;;;11.20;84.40;;;;;;5046352;28;20197;-60
2022/11/01 07:03:01;;;;;;;10.93;6.93;;;11.20;84.50;;;;;;5016024;28;20514;-59
2022/11/01 07:05:28;;;;;;;8.67;6.83;;;11.20;84.40;;;;;;5034831;28;20217;-60
2022/11/01 07:07:54;;;;;;;8.93;6.13;;;11.30;84.60;;;;;;5040790;28;20268;-60
2022/11/01 07:10:20;;;;;;;10.50;6.60;;;11.30;84.40;;;;;;5026679;28;20191;-60
2022/11/01 07:12:46;;;;;;;9.83;7.27;;;11.30;84.10;;;;;;5019528;28;20187;-60
2022/11/01 07:15:12;;;;;;;10.23;6.70;;;11.30;84.10;;;;;;5052271;28;20198;-59
2022/11/01 07:17:38;;;;;;;9.23;6.57;;;11.20;84.10;;;;;;5020152;28;20202;-60
2022/11/01 07:20:04;;;;;;;8.63;7.00;;;11.20;84.00;;;;;;5022902;28;20203;-60
2022/11/01 07:22:29;;;;;;;10.77;7.00;;;11.20;84.10;;;;;;5035102;28;20218;-60
2022/11/01 07:24:55;;;;;;;9.77;7.20;;;11.10;83.90;;;;;;5019309;28;20277;-60
2022/11/01 07:27:21;;;;;;;9.90;6.13;;;11.10;84.10;;;;;;5018964;28;20194;-60
2022/11/01 07:29:46;;;;;;;8.20;5.30;;;11.10;84.30;;;;;;5018016;28;20201;-60
2022/11/01 07:32:12;;;;;;;8.30;6.20;;;11.00;84.40;;;;;;5037838;28;20191;-60
2022/11/01 07:34:38;;;;;;;9.07;6.27;;;11.00;84.60;;;;;;5022842;28;20191;-60
2022/11/01 07:37:03;;;;;;;9.77;5.93;;;11.00;84.70;;;;;;5039498;28;20187;-59
2022/11/01 07:39:29;;;;;;;10.20;6.70;;;11.00;84.80;;;;;;5033976;28;20282;-59
2022/11/01 07:41:56;;;;;;;7.83;5.90;;;11.00;84.70;;;;;;5016860;28;20195;-59
2022/11/01 07:44:22;;;;;;;8.20;5.77;;;11.00;84.80;;;;;;5036660;28;20195;-59
2022/11/01 07:46:48;;;;;;;11.73;6.23;;;11.00;85.00;;;;;;5055842;28;20234;-60
2022/11/01 07:49:13;;;;;;;9.83;5.80;;;11.10;85.10;;;;;;5035342;28;20259;-59
2022/11/01 07:51:39;;;;;;;9.00;8.10;;;11.10;85.10;;;;;;5018754;28;20249;-57
2022/11/01 07:54:05;;;;;;;12.43;9.77;;;11.10;85.40;;;;;;5029370;28;20198;-59
2022/11/01 07:56:30;;;;;;;8.30;7.30;;;11.10;85.50;;;;;;5036816;28;20254;-61
2022/11/01 07:58:56;;;;;;;8.57;6.20;;;11.10;85.40;;;;;;5051531;28;20199;-60
2022/11/01 08:01:21;;;;;;;9.93;6.20;;;11.10;85.60;;;;;;5019795;28;20207;-60
2022/11/01 08:03:48;;;;;;;8.50;5.57;;;11.20;85.60;;;;;;5034609;28;20195;-60
2022/11/01 08:06:14;;;;;;;9.53;5.97;;;11.20;85.60;;;;;;5029299;28;20238;-60
2022/11/01 08:08:39;;;;;;;7.70;5.83;;;11.20;85.50;;;;;;5041914;28;20222;-60
2022/11/01 08:11:05;;;;;;;9.20;5.57;;;11.20;85.60;;;;;;5045465;28;20242;-60
2022/11/01 08:13:31;;;;;;;11.13;6.13;;;11.20;85.50;;;;;;5017371;28;20202;-60
2022/11/01 08:16:00;;;;;;;8.53;5.87;;;11.30;85.70;;;;;;5023619;28;20200;-60
2022/11/01 08:18:25;;;;;;;11.77;5.57;;;11.30;85.60;;;;;;5035312;28;20195;-60
2022/11/01 08:20:51;;;;;;;12.13;6.30;;;11.30;85.60;;;;;;5068441;28;20210;-60
2022/11/01 08:23:17;;;;;;;8.00;6.27;;;11.30;85.60;;;;;;5058243;28;20196;-60
2022/11/01 08:25:43;;;;;;;7.43;5.90;;;11.30;85.70;;;;;;5040637;28;20271;-60
2022/11/01 08:28:15;;;;;;;14.47;6.37;;;11.30;85.70;;;;;;5053498;28;20278;-60
2022/11/01 08:30:42;;;;;;;7.87;6.03;;;11.30;85.80;;;;;;5041061;28;20195;-60
2022/11/01 08:33:08;;;;;;;11.40;6.60;;;11.30;86.00;;;;;;5033113;28;20237;-60
2022/11/01 08:35:34;;;;;;;8.90;6.30;;;11.30;85.80;;;;;;5034071;28;20195;-60
2022/11/01 08:38:02;;;;;;;7.83;5.43;;;11.40;85.80;;;;;;5004446;28;20191;-60
2022/11/01 08:40:28;;;;;;;9.27;5.43;;;11.40;85.80;;;;;;5033175;28;20190;-60
2022/11/01 08:42:54;;;;;;;10.90;6.30;;;11.50;85.70;;;;;;5035966;28;20201;-60
2022/11/01 08:45:20;;;;;;;8.40;6.20;;;11.60;85.60;;;;;;5049736;28;20218;-60
2022/11/01 08:47:45;;;;;;;8.57;5.70;;;11.60;85.40;;;;;;5034179;28;20410;-60
2022/11/01 08:50:14;;;;;;;7.73;6.13;;;11.70;85.30;;;;;;5033809;28;20198;-60
2022/11/01 08:52:40;;;;;;;12.47;6.50;;;11.80;85.10;;;;;;5035162;28;20194;-60
2022/11/01 08:55:07;;;;;;;10.90;6.27;;;11.80;85.10;;;;;;5036165;28;20252;-60
2022/11/01 08:57:33;;;;;;;8.53;6.03;;;11.80;85.00;;;;;;5023009;28;20225;-60
2022/11/01 08:59:58;;;;;;;9.73;6.20;;;11.80;85.40;;;;;;5033338;28;20226;-61
2022/11/01 09:02:24;;;;;;;9.03;6.40;;;11.80;85.20;;;;;;5015448;28;20199;-61
2022/11/01 09:04:50;;;;;;;9.57;7.57;;;11.80;85.20;;;;;;5036539;28;20602;-61
2022/11/01 09:07:15;;;;;;;11.40;7.60;;;11.90;84.80;;;;;;5064184;28;20214;-61
2022/11/01 09:09:41;;;;;;;11.43;8.57;;;12.00;84.50;;;;;;5028961;28;20232;-60
2022/11/01 09:12:07;;;;;;;15.47;10.13;;;12.00;84.20;;;;;;5021279;28;20211;-60
2022/11/01 09:14:33;;;;;;;16.23;9.77;;;12.10;84.10;;;;;;5039193;28;20222;-60
2022/11/01 09:16:58;;;;;;;16.10;9.70;;;12.10;84.30;;;;;;5026300;28;20206;-60
2022/11/01 09:19:24;;;;;;;12.17;8.00;;;12.20;84.30;;;;;;5023059;28;20191;-60
2022/11/01 09:21:49;;;;;;;12.37;8.53;;;12.20;84.20;;;;;;5018558;28;20191;-60
2022/11/01 09:24:16;;;;;;;27.30;17.80;;;12.30;84.30;;;;;;5059106;28;20206;-62
2022/11/01 09:26:42;;;;;;;23.20;16.23;;;12.30;84.60;;;;;;5034526;28;20203;-62
2022/11/01 09:29:08;;;;;;;25.00;15.50;;;12.40;84.60;;;;;;5032933;28;20190;-62
2022/11/01 09:31:34;;;;;;;25.87;18.77;;;12.50;84.40;;;;;;5016001;28;20187;-59
2022/11/01 09:34:00;;;;;;;29.63;17.80;;;12.60;84.90;;;;;;5024291;28;20191;-59
2022/11/01 09:36:27;;;;;;;25.67;16.70;;;12.60;84.90;;;;;;5019655;28;20195;-59
2022/11/01 09:38:54;;;;;;;22.90;16.30;;;12.80;84.60;;;;;;5034332;28;20202;-59
2022/11/01 09:41:19;;;;;;;22.97;15.33;;;12.80;83.90;;;;;;5032950;28;20190;-61
2022/11/01 09:43:46;;;;;;;27.77;17.00;;;13.00;83.40;;;;;;5043910;28;20190;-61
2022/11/01 09:46:15;;;;;;;29.23;17.23;;;13.00;83.60;;;;;;5013624;28;20673;-61
2022/11/01 09:48:43;;;;;;;24.70;16.63;;;13.10;83.00;;;;;;5060025;28;20191;-61
2022/11/01 09:51:20;;;;;;;24.53;17.33;;;13.10;83.20;;;;;;5032669;28;20188;-61
2022/11/01 09:53:48;;;;;;;22.00;16.27;;;13.20;83.30;;;;;;5032641;28;20190;-61
2022/11/01 09:56:21;;;;;;;21.87;15.93;;;13.20;82.20;;;;;;5017963;28;20265;-61
2022/11/01 09:58:49;;;;;;;19.90;15.77;;;13.30;82.20;;;;;;5032912;28;20221;-61
2022/11/01 10:01:38;;;;;;;18.43;15.03;;;13.30;82.20;;;;;;5036207;28;20211;-61
2022/11/01 10:04:21;;;;;;;21.63;15.13;;;13.40;82.80;;;;;;5017814;28;20187;-61
2022/11/01 10:07:06;;;;;;;22.50;15.47;;;13.40;81.80;;;;;;5042586;28;20206;-61
2022/11/01 10:09:40;;;;;;;18.27;14.80;;;13.50;81.50;;;;;;5041388;28;20187;-61
2022/11/01 10:12:49;;;;;;;18.13;14.43;;;13.50;81.90;;;;;;5036094;28;20190;-61
2022/11/01 10:15:38;;;;;;;18.07;13.03;;;13.50;81.30;;;;;;5041446;28;20505;-61
2022/11/01 10:18:24;;;;;;;16.53;13.03;;;13.50;81.30;;;;;;5032462;28;20237;-61
2022/11/01 10:20:50;;;;;;;16.57;13.03;;;13.60;82.00;;;;;;5070680;28;20290;-61
2022/11/01 10:23:17;;;;;;;15.27;12.53;;;13.70;81.80;;;;;;5048716;28;20254;-61
2022/11/01 10:25:53;;;;;;;17.30;13.00;;;13.80;81.00;;;;;;5014907;28;20279;-61
2022/11/01 10:28:30;;;;;;;16.00;11.67;;;13.80;80.90;;;;;;5035123;28;20188;-62
2022/11/01 10:31:04;;;;;;;15.00;11.50;;;13.80;80.60;;;;;;5043246;28;20187;-62
2022/11/01 10:33:34;;;;;;;17.37;11.37;;;13.90;80.40;;;;;;5037964;28;21043;-61
2022/11/01 10:36:12;;;;;;;14.03;11.07;;;14.00;80.60;;;;;;5047916;28;20190;-60
2022/11/01 10:38:52;;;;;;;12.33;9.47;;;14.10;80.90;;;;;;5037774;28;20273;-60
2022/11/01 10:41:22;;;;;;;13.80;10.50;;;14.10;80.70;;;;;;5048617;28;20202;-59
2022/11/01 10:43:59;;;;;;;13.03;9.97;;;14.20;81.30;;;;;;5022995;28;20188;-60
2022/11/01 10:46:39;;;;;;;12.13;9.87;;;14.30;80.30;;;;;;5037738;28;20218;-60
2022/11/01 10:49:15;;;;;;;18.00;10.97;;;14.60;80.60;;;;;;5036360;28;20190;-60
2022/11/01 10:51:42;;;;;;;12.47;9.83;;;14.70;79.60;;;;;;5034295;28;20196;-60
2022/11/01 10:54:16;;;;;;;14.37;9.07;;;14.90;80.00;;;;;;5033984;28;20190;-60
2022/11/01 10:56:46;;;;;;;10.67;8.80;;;15.10;79.20;;;;;;5043575;28;20271;-62
2022/11/01 10:59:20;;;;;;;14.00;10.00;;;15.10;77.40;;;;;;5037434;28;20205;-62
2022/11/01 11:01:49;;;;;;;11.07;8.47;;;15.20;78.70;;;;;;5048439;28;20193;-62
2022/11/01 11:04:17;;;;;;;10.83;8.57;;;15.40;77.60;;;;;;5052887;28;20273;-61
2022/11/01 11:06:44;;;;;;;12.30;8.80;;;15.30;77.40;;;;;;5040299;28;20211;-61
2022/11/01 11:09:42;;;;;;;10.63;8.40;;;15.50;76.20;;;;;;5047151;28;20218;-62
2022/11/01 11:12:17;;;;;;;12.43;8.93;;;15.50;76.50;;;;;;5071504;28;20202;-61
2022/11/01 11:14:49;;;;;;;11.00;8.40;;;15.70;76.20;;;;;;5040115;28;20187;-61
2022/11/01 11:17:34;;;;;;;10.80;8.53;;;15.80;75.20;;;;;;5024049;28;20205;-61
2022/11/01 11:20:03;;;;;;;11.70;9.07;;;16.00;76.40;;;;;;5037158;28;20183;-61
2022/11/01 11:22:30;;;;;;;9.83;8.43;;;16.00;75.60;;;;;;5020128;28;20196;-62
2022/11/01 11:24:57;;;;;;;11.87;8.50;;;16.00;75.00;;;;;;5070499;28;20200;-61
2022/11/01 11:27:28;;;;;;;11.90;8.40;;;16.40;74.00;;;;;;5025671;28;20211;-62
2022/11/01 11:30:07;;;;;;;12.43;8.63;;;16.60;73.90;;;;;;5036912;28;20190;-60
2022/11/01 11:32:37;;;;;;;10.60;8.03;;;16.60;72.80;;;;;;5029634;28;20199;-60
2022/11/01 11:35:03;;;;;;;10.30;7.47;;;16.70;74.00;;;;;;5018109;28;20194;-62
2022/11/01 11:37:32;;;;;;;8.17;7.37;;;16.80;73.60;;;;;;5050471;28;20191;-60
2022/11/01 11:40:17;;;;;;;8.97;8.07;;;16.90;74.20;;;;;;5041710;28;20218;-60
2022/11/01 11:42:44;;;;;;;10.23;7.67;;;17.10;72.90;;;;;;5032467;28;20278;-60
2022/11/01 11:45:28;;;;;;;11.07;7.87;;;17.30;71.40;;;;;;5059477;28;20229;-60
2022/11/01 11:48:14;;;;;;;12.70;8.23;;;17.30;70.90;;;;;;5046055;28;20194;-59
2022/11/01 11:50:41;;;;;;;13.20;8.80;;;17.50;70.30;;;;;;5038296;28;20322;-61
2022/11/01 11:53:23;;;;;;;10.33;7.60;;;17.60;69.90;;;;;;5018348;28;20203;-60
2022/11/01 11:55:53;;;;;;;10.23;7.97;;;17.80;70.50;;;;;;5028732;28;20274;-60
2022/11/01 11:58:36;;;;;;;13.03;7.40;;;17.90;68.90;;;;;;5031605;28;20199;-59
2022/11/01 12:01:05;;;;;;;14.60;7.67;;;18.00;70.80;;;;;;5021724;28;20191;-59
2022/11/01 12:03:52;;;;;;;8.33;6.50;;;18.10;70.40;;;;;;5043673;28;20202;-59
2022/11/01 12:06:46;;;;;;;8.60;6.80;;;18.20;68.50;;;;;;5026747;28;20219;-60
2022/11/01 12:09:43;;;;;;;9.73;6.20;;;18.20;69.30;;;;;;5046628;28;20188;-62
2022/11/01 12:12:24;;;;;;;8.83;6.63;;;18.30;68.60;;;;;;5032763;28;20241;-61
2022/11/01 12:14:50;;;;;;;7.67;6.27;;;18.30;70.10;;;;;;5031135;28;20192;-60
2022/11/01 12:17:44;;;;;;;8.37;6.03;;;18.40;69.30;;;;;;5025114;28;20203;-60
2022/11/01 12:20:24;;;;;;;7.23;6.47;;;18.60;68.30;;;;;;5039589;28;20197;-57
2022/11/01 12:23:09;;;;;;;7.60;6.40;;;18.80;66.80;;;;;;5040397;28;20202;-58
2022/11/01 12:25:36;;;;;;;8.03;6.27;;;18.80;65.50;;;;;;5030632;28;20215;-58
2022/11/01 12:28:06;;;;;;;7.03;5.03;;;18.90;66.50;;;;;;5035379;28;20187;-60
2022/11/01 12:30:34;;;;;;;7.40;5.40;;;18.90;66.30;;;;;;5033832;28;20190;-60
2022/11/01 12:33:42;;;;;;;9.00;6.20;;;19.00;66.90;;;;;;5034287;28;20191;-60
2022/11/01 12:36:11;;;;;;;7.00;6.30;;;19.10;65.70;;;;;;5046737;28;20241;-60
2022/11/01 12:38:42;;;;;;;6.53;5.80;;;19.20;64.70;;;;;;5024547;28;20194;-60
2022/11/01 12:41:29;;;;;;;7.83;6.53;;;19.20;64.10;;;;;;5032730;28;20188;-60
2022/11/01 12:44:05;;;;;;;7.70;5.67;;;19.30;64.40;;;;;;5028121;28;20182;-59
2022/11/01 12:46:40;;;;;;;10.30;5.57;;;19.50;64.20;;;;;;5033987;28;20207;-58
2022/11/01 12:49:24;;;;;;;6.20;5.30;;;19.70;65.00;;;;;;5066386;28;20191;-59
2022/11/01 12:51:55;;;;;;;7.17;5.37;;;19.70;60.90;;;;;;5034433;28;20264;-59
2022/11/01 12:54:37;;;;;;;6.33;5.60;;;19.80;61.60;;;;;;5053808;28;20197;-59
2022/11/01 12:57:11;;;;;;;9.50;5.77;;;19.80;61.50;;;;;;5038594;28;20268;-59
2022/11/01 12:59:37;;;;;;;10.63;5.53;;;19.80;62.20;;;;;;5040026;28;20202;-59